Italic G — IBYH — position and weather

sailwx.info

Track history (hours):
 
Tides and Currents Weather Stations Pressure Air Temp Water Temp Dewpoint Dewpoint Depression Visibility Wind Speed Wind Dir Waves Ship Positions

Italic G

Last reported at 2015-Jul-29 22:33 UTC. Time now 2015-Aug-03 13:07 UTC.
Position N 49°40' W 000°40'.

Length 229 m; draft 8.5 m.

Type: Cargo ship. MMSI: 247282300.

Date/timePositionNaut miles runAvg speedWind from/ knotsBaromVisibWave heightAir tempDewpointWater temp
2015-Jul-29 22:33N 49°40' W 000°40'1111.1
2015-Jul-29 21:33N 49°35' W 000°24'1010.3
2015-Jul-29 20:33N 49°31' W 000°10'8 8.5
2015-Jul-29 19:33N 49°27' E 000°02'1111.4
2015-Jul-29 18:33N 49°26' E 000°19'8 8.4
2015-Jul-29 17:33N 49°29' E 000°31'8 6.3
2015-Jul-29 16:14N 49°31' E 000°43'5 7.6
2015-Jul-29 15:33N 49°28' E 000°49'4 3.3
2015-Jul-29 14:11N 49°28' E 000°56'  
2015-Jul-25 17:18N 49°25' E 000°52'4 5.4
2015-Jul-25 16:33N 49°28' E 000°49'6 5.7
2015-Jul-25 15:33N 49°29' E 000°40'7 7.4
2015-Jul-25 14:33N 49°29' E 000°29'1111.4
2015-Jul-25 13:33N 49°26' E 000°12'1110.6
2015-Jul-25 12:33N 49°29' W 000°04'3 3.3
2015-Jul-25 11:31N 49°29' W 000°09'0 0.0
2015-Jul-25 10:31N 49°29' W 000°09'0 0.0
2015-Jul-25 09:31N 49°29' W 000°09'0 0.0
2015-Jul-25 08:31N 49°29' W 000°09'0 0.0
2015-Jul-25 07:31N 49°29' W 000°09'0 0.0
2015-Jul-25 06:31N 49°29' W 000°09'0 0.1
2015-Jul-25 05:31N 49°29' W 000°09'0 0.0
2015-Jul-25 04:31N 49°29' W 000°09'0 0.0
2015-Jul-25 03:31N 49°29' W 000°09'1 1.4
2015-Jul-25 02:33N 49°29' W 000°11'9 8.8
2015-Jul-25 01:33N 49°37' W 000°19'1211.7
2015-Jul-25 00:31N 49°48' W 000°23'4511.3
2015-Jul-24 20:32N 50°30' E 000°06'1512.7
2015-Jul-24 19:21N 50°34' E 000°29'1112.2
2015-Jul-24 18:28N 50°39' E 000°44'1112.0
2015-Jul-24 17:33N 50°45' E 000°58'1111.3
2015-Jul-24 16:33N 50°52' E 001°12'1111.2
2015-Jul-24 15:33N 50°60' E 001°25'1111.3
2015-Jul-24 14:34N 51°07' E 001°39'9 8.7
2015-Jul-24 13:33N 51°03' E 001°52'1211.4
2015-Jul-24 12:32N 51°02' E 002°10'1 0.7
2015-Jul-24 11:10N 51°01' E 002°11'0 0.0
2015-Jul-24 10:31N 51°01' E 002°11'0 0.0
2015-Jul-24 09:22N 51°01' E 002°11'0 0.0
2015-Jul-24 07:22N 51°01' E 002°11'0 0.0
2015-Jul-24 06:28N 51°01' E 002°11'0 0.0
2015-Jul-24 03:10N 51°01' E 002°11'0 0.0
2015-Jul-24 02:22N 51°01' E 002°11'0 0.0
2015-Jul-23 22:22N 51°01' E 002°11'0 0.0
2015-Jul-23 20:19N 51°01' E 002°11'0 0.0
2015-Jul-23 19:10N 51°01' E 002°11'0 0.0
2015-Jul-23 17:16N 51°01' E 002°10'0 0.0
2015-Jul-23 16:28N 51°01' E 002°11'0 0.0
2015-Jul-23 15:22N 51°01' E 002°11'0 0.0
2015-Jul-23 11:31N 51°01' E 002°11'0 0.0
2015-Jul-23 10:13N 51°01' E 002°11'0 0.0
2015-Jul-23 07:28N 51°01' E 002°11'0 0.0
2015-Jul-23 02:04N 51°01' E 002°11'0 0.6
2015-Jul-23 01:31N 51°01' E 002°10'6 5.0
2015-Jul-23 00:25N 51°03' E 002°02'910.1
2015-Jul-22 23:33N 51°02' E 001°48'1 0.8
2015-Jul-22 22:32N 51°02' E 001°47'0 0.0
2015-Jul-22 21:32N 51°02' E 001°47'0 0.3
2015-Jul-22 20:32N 51°02' E 001°47'0 0.1
2015-Jul-22 19:32N 51°02' E 001°47'0 0.0
2015-Jul-22 18:32N 51°02' E 001°47'0 0.0
2015-Jul-22 17:32N 51°02' E 001°47'0 0.0
2015-Jul-22 16:28N 51°02' E 001°47'0 0.0
2015-Jul-22 15:32N 51°02' E 001°47'0 0.0
2015-Jul-22 14:28N 51°02' E 001°47'0 0.1
2015-Jul-22 13:25N 51°02' E 001°47'0 0.3
2015-Jul-22 12:31N 51°02' E 001°47'0 0.0
2015-Jul-22 11:29N 51°02' E 001°47'0 0.0
2015-Jul-22 10:31N 51°02' E 001°47'0 0.0
2015-Jul-22 09:32N 51°02' E 001°47'0 0.0
2015-Jul-22 08:29N 51°02' E 001°47'0 0.2
2015-Jul-22 07:26N 51°02' E 001°47'0 0.3
2015-Jul-22 06:33N 51°02' E 001°47'6 5.9
2015-Jul-22 05:33N 50°60' E 001°38'11611.6
2015-Jul-21 19:33N 50°08' W 001°06'  
Track history (hours):
 
Tides and Currents Weather Stations Pressure Air Temp Water Temp Dewpoint Dewpoint Depression Visibility Wind Speed Wind Dir Waves Ship Positions

Italic G

Last reported at 2015-Jul-29 22:33 UTC. Time now 2015-Aug-03 13:07 UTC.
Position N 49°40' W 000°40'.

Length 229 m; draft 8.5 m.

Type: Cargo ship. MMSI: 247282300.

Date/timePositionNaut miles runAvg speedWind from/ knotsBaromVisibWave heightAir tempDewpointWater temp
2015-Jul-29 22:33N 49°40' W 000°40'1111.1
2015-Jul-29 21:33N 49°35' W 000°24'1010.3
2015-Jul-29 20:33N 49°31' W 000°10'8 8.5
2015-Jul-29 19:33N 49°27' E 000°02'1111.4
2015-Jul-29 18:33N 49°26' E 000°19'8 8.4
2015-Jul-29 17:33N 49°29' E 000°31'8 6.3
2015-Jul-29 16:14N 49°31' E 000°43'5 7.6
2015-Jul-29 15:33N 49°28' E 000°49'4 3.3
2015-Jul-29 14:11N 49°28' E 000°56'  
2015-Jul-25 17:18N 49°25' E 000°52'4 5.4
2015-Jul-25 16:33N 49°28' E 000°49'6 5.7
2015-Jul-25 15:33N 49°29' E 000°40'7 7.4
2015-Jul-25 14:33N 49°29' E 000°29'1111.4
2015-Jul-25 13:33N 49°26' E 000°12'1110.6
2015-Jul-25 12:33N 49°29' W 000°04'3 3.3
2015-Jul-25 11:31N 49°29' W 000°09'0 0.0
2015-Jul-25 10:31N 49°29' W 000°09'0 0.0
2015-Jul-25 09:31N 49°29' W 000°09'0 0.0
2015-Jul-25 08:31N 49°29' W 000°09'0 0.0
2015-Jul-25 07:31N 49°29' W 000°09'0 0.0
2015-Jul-25 06:31N 49°29' W 000°09'0 0.1
2015-Jul-25 05:31N 49°29' W 000°09'0 0.0
2015-Jul-25 04:31N 49°29' W 000°09'0 0.0
2015-Jul-25 03:31N 49°29' W 000°09'1 1.4
2015-Jul-25 02:33N 49°29' W 000°11'9 8.8
2015-Jul-25 01:33N 49°37' W 000°19'1211.7
2015-Jul-25 00:31N 49°48' W 000°23'4511.3
2015-Jul-24 20:32N 50°30' E 000°06'1512.7
2015-Jul-24 19:21N 50°34' E 000°29'1112.2
2015-Jul-24 18:28N 50°39' E 000°44'1112.0
2015-Jul-24 17:33N 50°45' E 000°58'1111.3
2015-Jul-24 16:33N 50°52' E 001°12'1111.2
2015-Jul-24 15:33N 50°60' E 001°25'1111.3
2015-Jul-24 14:34N 51°07' E 001°39'9 8.7
2015-Jul-24 13:33N 51°03' E 001°52'1211.4
2015-Jul-24 12:32N 51°02' E 002°10'1 0.7
2015-Jul-24 11:10N 51°01' E 002°11'0 0.0
2015-Jul-24 10:31N 51°01' E 002°11'0 0.0
2015-Jul-24 09:22N 51°01' E 002°11'0 0.0
2015-Jul-24 07:22N 51°01' E 002°11'0 0.0
2015-Jul-24 06:28N 51°01' E 002°11'0 0.0
2015-Jul-24 03:10N 51°01' E 002°11'0 0.0
2015-Jul-24 02:22N 51°01' E 002°11'0 0.0
2015-Jul-23 22:22N 51°01' E 002°11'0 0.0
2015-Jul-23 20:19N 51°01' E 002°11'0 0.0
2015-Jul-23 19:10N 51°01' E 002°11'0 0.0
2015-Jul-23 17:16N 51°01' E 002°10'0 0.0
2015-Jul-23 16:28N 51°01' E 002°11'0 0.0
2015-Jul-23 15:22N 51°01' E 002°11'0 0.0
2015-Jul-23 11:31N 51°01' E 002°11'0 0.0
2015-Jul-23 10:13N 51°01' E 002°11'0 0.0
2015-Jul-23 07:28N 51°01' E 002°11'0 0.0
2015-Jul-23 02:04N 51°01' E 002°11'0 0.6
2015-Jul-23 01:31N 51°01' E 002°10'6 5.0
2015-Jul-23 00:25N 51°03' E 002°02'910.1
2015-Jul-22 23:33N 51°02' E 001°48'1 0.8
2015-Jul-22 22:32N 51°02' E 001°47'0 0.0
2015-Jul-22 21:32N 51°02' E 001°47'0 0.3
2015-Jul-22 20:32N 51°02' E 001°47'0 0.1
2015-Jul-22 19:32N 51°02' E 001°47'0 0.0
2015-Jul-22 18:32N 51°02' E 001°47'0 0.0
2015-Jul-22 17:32N 51°02' E 001°47'0 0.0
2015-Jul-22 16:28N 51°02' E 001°47'0 0.0
2015-Jul-22 15:32N 51°02' E 001°47'0 0.0
2015-Jul-22 14:28N 51°02' E 001°47'0 0.1
2015-Jul-22 13:25N 51°02' E 001°47'0 0.3
2015-Jul-22 12:31N 51°02' E 001°47'0 0.0
2015-Jul-22 11:29N 51°02' E 001°47'0 0.0
2015-Jul-22 10:31N 51°02' E 001°47'0 0.0
2015-Jul-22 09:32N 51°02' E 001°47'0 0.0
2015-Jul-22 08:29N 51°02' E 001°47'0 0.2
2015-Jul-22 07:26N 51°02' E 001°47'0 0.3
2015-Jul-22 06:33N 51°02' E 001°47'6 5.9
2015-Jul-22 05:33N 50°60' E 001°38'11611.6
2015-Jul-21 19:33N 50°08' W 001°06'  

Dump ship's entire track history